Time;durP1;ratioP1;P1;durP2;ratioP2;P2;SDS_P1;SDS_P2;PMS_P1;PMS_P2;Temp;Humidity;BMP_temperature;BMP_pressure;BME280_temperature;BME280_humidity;BME280_pressure;Samples;Min_cycle;Max_cycle;Signal;HPM_P1;HPM_P2
2023/07/25 00:00:10;;;;;;;4.53;1.85;;;18.10;99.90;;;;;;2089646;28;20040;-71
2023/07/25 00:01:11;;;;;;;2.97;1.45;;;18.20;99.90;;;;;;2091283;28;20444;-71
2023/07/25 00:02:11;;;;;;;3.85;1.67;;;18.10;99.90;;;;;;2091210;28;20121;-71
2023/07/25 00:03:12;;;;;;;4.05;1.80;;;18.10;99.90;;;;;;2090138;28;20059;-71
2023/07/25 00:04:12;;;;;;;3.40;1.80;;;18.10;99.90;;;;;;2092021;28;20039;-71
2023/07/25 00:05:13;;;;;;;1.88;1.60;;;18.10;99.90;;;;;;2091291;28;20025;-71
2023/07/25 00:06:13;;;;;;;2.92;1.88;;;18.10;99.90;;;;;;2091307;28;20515;-71
2023/07/25 00:07:14;;;;;;;2.90;1.50;;;18.10;99.90;;;;;;2091825;28;20112;-71
2023/07/25 00:08:14;;;;;;;3.83;1.40;;;18.10;99.90;;;;;;2095528;28;20055;-71
2023/07/25 00:09:15;;;;;;;2.95;1.58;;;18.10;99.90;;;;;;2093758;28;20028;-71
2023/07/25 00:10:16;;;;;;;2.95;1.80;;;18.10;99.90;;;;;;2090972;28;20416;-71
2023/07/25 00:11:17;;;;;;;4.80;1.85;;;18.10;99.90;;;;;;2094401;28;20019;-71
2023/07/25 00:12:17;;;;;;;3.13;1.63;;;18.10;99.90;;;;;;2093834;28;20111;-71
2023/07/25 00:13:18;;;;;;;5.07;2.35;;;18.10;99.90;;;;;;2091970;28;20108;-71
2023/07/25 00:14:19;;;;;;;4.90;2.05;;;18.10;99.90;;;;;;2092348;28;20039;-71
2023/07/25 00:15:19;;;;;;;4.65;2.08;;;18.10;99.90;;;;;;2094041;28;20021;-71
2023/07/25 00:16:20;;;;;;;2.67;1.50;;;18.10;99.90;;;;;;2093758;28;20052;-71
2023/07/25 00:17:20;;;;;;;5.55;2.08;;;18.10;99.90;;;;;;2092409;28;20112;-71
2023/07/25 00:18:21;;;;;;;4.45;1.88;;;18.10;99.90;;;;;;2091029;28;20396;-71
2023/07/25 00:19:21;;;;;;;2.78;1.75;;;18.10;99.90;;;;;;2093197;28;20040;-71
2023/07/25 00:20:22;;;;;;;3.88;1.92;;;18.10;99.90;;;;;;2090800;28;20017;-71
2023/07/25 00:21:23;;;;;;;4.38;2.20;;;18.10;99.90;;;;;;2092417;28;20021;-71
2023/07/25 00:22:23;;;;;;;3.58;1.70;;;18.10;99.90;;;;;;2092600;28;20119;-71
2023/07/25 00:23:24;;;;;;;3.40;1.63;;;18.10;99.90;;;;;;2091596;28;20365;-71
2023/07/25 00:24:24;;;;;;;1.95;1.67;;;18.10;99.90;;;;;;2090487;28;20036;-71
2023/07/25 00:25:25;;;;;;;3.47;1.80;;;18.10;99.90;;;;;;2090221;28;20078;-71
2023/07/25 00:26:25;;;;;;;3.80;1.88;;;18.10;99.90;;;;;;2092287;28;20078;-71
2023/07/25 00:27:26;;;;;;;6.05;1.80;;;18.10;99.90;;;;;;2089856;28;20032;-71
2023/07/25 00:28:26;;;;;;;4.00;1.98;;;18.10;99.90;;;;;;2092924;28;20108;-71
2023/07/25 00:29:27;;;;;;;3.97;1.67;;;18.10;99.90;;;;;;2093951;28;20025;-71
2023/07/25 00:30:27;;;;;;;5.38;1.70;;;18.10;99.90;;;;;;2089820;28;20613;-71
2023/07/25 00:31:28;;;;;;;2.33;1.90;;;18.10;99.90;;;;;;2092258;28;20031;-71
2023/07/25 00:32:28;;;;;;;5.13;1.77;;;18.10;99.90;;;;;;2090050;28;20721;-71
2023/07/25 00:33:29;;;;;;;4.60;2.08;;;18.10;99.90;;;;;;2089313;28;20021;-71
2023/07/25 00:34:29;;;;;;;1.83;1.63;;;18.10;99.90;;;;;;2092847;28;20078;-71
2023/07/25 00:35:30;;;;;;;4.15;2.13;;;18.10;99.90;;;;;;2090267;28;20025;-71
2023/07/25 00:36:30;;;;;;;2.72;1.45;;;18.10;99.90;;;;;;2091181;28;20024;-71
2023/07/25 00:37:31;;;;;;;3.95;1.83;;;18.10;99.90;;;;;;2093769;28;20025;-71
2023/07/25 00:38:32;;;;;;;6.85;1.88;;;18.10;99.90;;;;;;2093555;28;20488;-71
2023/07/25 00:39:32;;;;;;;4.85;2.20;;;18.10;99.90;;;;;;2093008;28;20024;-71
2023/07/25 00:40:38;;;;;;;6.45;2.05;;;18.10;99.90;;;;;;2090693;28;20215;-71
2023/07/25 00:41:39;;;;;;;7.57;2.40;;;18.10;99.90;;;;;;2093807;28;20025;-71
2023/07/25 00:42:39;;;;;;;5.60;1.88;;;18.10;99.90;;;;;;2091929;28;20025;-71
2023/07/25 00:43:40;;;;;;;5.07;2.00;;;18.10;99.90;;;;;;2092054;28;20059;-71
2023/07/25 00:44:40;;;;;;;4.38;1.95;;;18.00;99.90;;;;;;2089920;28;20045;-71
2023/07/25 00:45:41;;;;;;;5.40;2.05;;;18.00;99.90;;;;;;2092571;28;20174;-71
2023/07/25 00:46:43;;;;;;;4.18;1.95;;;18.00;99.90;;;;;;2092608;28;20070;-71
2023/07/25 00:47:43;;;;;;;5.20;1.90;;;18.00;99.90;;;;;;2092757;28;20124;-71
2023/07/25 00:48:44;;;;;;;4.35;1.60;;;18.00;99.90;;;;;;2094343;28;20017;-71
2023/07/25 00:49:45;;;;;;;5.15;2.17;;;18.00;99.90;;;;;;2092604;28;20380;-71
2023/07/25 00:50:46;;;;;;;4.90;1.90;;;18.00;99.90;;;;;;2091309;28;20509;-71
2023/07/25 00:51:47;;;;;;;4.53;1.85;;;18.00;99.90;;;;;;2094133;28;20366;-71
2023/07/25 00:52:48;;;;;;;7.57;2.17;;;18.00;99.90;;;;;;2094953;28;20032;-71
2023/07/25 00:53:48;;;;;;;4.68;1.95;;;18.10;99.90;;;;;;2091755;28;20497;-71
2023/07/25 00:54:50;;;;;;;3.50;1.70;;;18.00;99.90;;;;;;2093743;28;20041;-71
2023/07/25 00:55:51;;;;;;;5.00;1.95;;;18.10;99.90;;;;;;2091798;28;20025;-71
2023/07/25 00:56:51;;;;;;;2.92;1.50;;;18.00;99.90;;;;;;2092615;28;20529;-71
2023/07/25 00:57:52;;;;;;;2.83;1.65;;;18.00;99.90;;;;;;2094187;28;20504;-71
2023/07/25 00:58:54;;;;;;;4.28;1.65;;;18.10;99.90;;;;;;2092432;28;20032;-71
2023/07/25 00:59:54;;;;;;;5.65;2.17;;;18.00;99.90;;;;;;2092107;28;20035;-71
2023/07/25 01:01:10;;;;;;;3.63;1.60;;;18.00;99.90;;;;;;2093977;28;20032;-71
2023/07/25 01:02:12;;;;;;;8.00;1.83;;;18.00;99.90;;;;;;2094440;28;20079;-71
2023/07/25 01:03:13;;;;;;;4.72;1.95;;;18.00;99.90;;;;;;2092817;28;20028;-71
2023/07/25 01:04:14;;;;;;;6.05;2.05;;;18.00;99.90;;;;;;2094836;28;20358;-71
2023/07/25 01:05:14;;;;;;;6.10;1.73;;;18.00;99.90;;;;;;2091731;28;20043;-71
2023/07/25 01:06:17;;;;;;;4.65;1.98;;;18.00;99.90;;;;;;2092136;28;20760;-71
2023/07/25 01:07:18;;;;;;;3.13;1.65;;;18.00;99.90;;;;;;2092631;28;20028;-71
2023/07/25 01:08:19;;;;;;;3.47;1.95;;;18.00;99.90;;;;;;2091334;28;20025;-71
2023/07/25 01:09:43;;;;;;;5.18;2.20;;;18.00;99.90;;;;;;2092261;28;20422;-71
2023/07/25 01:10:43;;;;;;;6.82;2.00;;;18.00;99.90;;;;;;2093448;28;20025;-71
2023/07/25 01:11:44;;;;;;;4.65;2.08;;;18.00;99.90;;;;;;2092133;28;20025;-71
2023/07/25 01:12:44;;;;;;;5.63;2.40;;;18.00;99.90;;;;;;2091960;28;20024;-71
2023/07/25 01:13:45;;;;;;;4.03;1.50;;;18.00;99.90;;;;;;2092848;28;20052;-71
2023/07/25 01:14:46;;;;;;;5.43;1.73;;;18.00;99.90;;;;;;2093599;28;20372;-71
2023/07/25 01:15:51;;;;;;;5.80;1.98;;;18.00;99.90;;;;;;2091956;28;20074;-71
2023/07/25 01:16:53;;;;;;;5.40;2.70;;;18.00;99.90;;;;;;2091726;28;20037;-71
2023/07/25 01:17:54;;;;;;;6.18;1.80;;;18.00;99.90;;;;;;2092025;28;20498;-71
2023/07/25 01:18:55;;;;;;;4.60;2.22;;;18.00;99.90;;;;;;2095357;28;20111;-71
2023/07/25 01:19:56;;;;;;;4.50;2.08;;;18.00;99.90;;;;;;2089669;28;20025;-71
2023/07/25 01:20:57;;;;;;;3.45;1.75;;;18.00;99.90;;;;;;2091642;28;20037;-71
2023/07/25 01:21:58;;;;;;;5.28;1.40;;;18.00;99.90;;;;;;2094364;28;20566;-71
2023/07/25 01:23:01;;;;;;;5.55;1.95;;;18.00;99.90;;;;;;2092699;28;20124;-71
2023/07/25 01:24:02;;;;;;;7.82;2.10;;;18.00;99.90;;;;;;2093495;28;20032;-71
2023/07/25 01:25:03;;;;;;;4.22;1.60;;;18.00;99.90;;;;;;2091794;28;20036;-71
2023/07/25 01:26:04;;;;;;;4.38;1.65;;;17.90;99.90;;;;;;2091299;28;20026;-71
2023/07/25 01:27:05;;;;;;;2.97;1.50;;;17.90;99.90;;;;;;2094200;28;20107;-71
2023/07/25 01:28:05;;;;;;;2.55;1.50;;;17.90;99.90;;;;;;2092366;28;20500;-71
2023/07/25 01:29:06;;;;;;;4.13;1.60;;;18.00;99.90;;;;;;2094836;28;20099;-71
2023/07/25 01:30:07;;;;;;;2.90;1.55;;;18.00;99.90;;;;;;2093066;28;20044;-71
2023/07/25 01:31:08;;;;;;;4.47;1.50;;;17.90;99.90;;;;;;2092845;28;20462;-71
2023/07/25 01:32:09;;;;;;;3.22;1.70;;;17.90;99.90;;;;;;2093217;28;20057;-71
2023/07/25 01:33:09;;;;;;;7.85;1.75;;;17.90;99.90;;;;;;2092729;28;20481;-71
2023/07/25 01:34:10;;;;;;;6.28;1.88;;;18.00;99.90;;;;;;2092286;28;20020;-71
2023/07/25 01:35:10;;;;;;;3.40;1.85;;;17.90;99.90;;;;;;2092311;28;20027;-71
2023/07/25 01:36:11;;;;;;;4.18;1.70;;;18.00;99.90;;;;;;2091878;28;20032;-71
2023/07/25 01:37:12;;;;;;;3.55;1.48;;;18.00;99.90;;;;;;2092806;28;20028;-71
2023/07/25 01:38:12;;;;;;;3.75;1.80;;;17.90;99.90;;;;;;2093217;28;20020;-71
2023/07/25 01:39:13;;;;;;;2.88;1.50;;;17.90;99.90;;;;;;2090301;28;20025;-71
2023/07/25 01:40:13;;;;;;;5.68;1.60;;;17.90;99.90;;;;;;2090098;28;20041;-71
2023/07/25 01:41:14;;;;;;;5.18;1.48;;;17.90;99.90;;;;;;2093548;28;20033;-71
2023/07/25 01:42:14;;;;;;;4.97;1.90;;;17.90;99.90;;;;;;2092575;28;20029;-71
2023/07/25 01:43:15;;;;;;;4.40;1.70;;;17.90;99.90;;;;;;2093430;28;20032;-71
2023/07/25 01:44:15;;;;;;;5.43;1.77;;;17.90;99.90;;;;;;2091535;28;20074;-71
2023/07/25 01:45:16;;;;;;;7.50;2.10;;;17.80;99.90;;;;;;2092802;28;20025;-71
2023/07/25 01:46:16;;;;;;;5.03;1.92;;;17.90;99.90;;;;;;2094233;28;20032;-71
2023/07/25 01:47:17;;;;;;;3.42;1.90;;;17.80;99.90;;;;;;2091954;28;20516;-71
2023/07/25 01:48:17;;;;;;;3.70;1.92;;;17.80;99.90;;;;;;2094275;28;20021;-71
2023/07/25 01:49:18;;;;;;;4.88;1.50;;;17.90;99.90;;;;;;2095557;28;20025;-71
2023/07/25 01:50:19;;;;;;;5.82;2.00;;;17.80;99.90;;;;;;2091128;28;20031;-71
2023/07/25 01:51:19;;;;;;;3.90;1.90;;;17.90;99.90;;;;;;2093456;28;20027;-71
2023/07/25 01:52:20;;;;;;;3.75;1.52;;;17.90;99.90;;;;;;2093662;28;20069;-71
2023/07/25 01:53:21;;;;;;;4.60;1.80;;;17.90;99.90;;;;;;2094926;28;20392;-71
2023/07/25 01:54:22;;;;;;;6.47;1.85;;;17.90;99.90;;;;;;2093064;28;20021;-71
2023/07/25 01:55:22;;;;;;;3.03;1.80;;;17.90;99.90;;;;;;2092708;28;20558;-71
2023/07/25 01:56:23;;;;;;;6.05;2.00;;;17.90;99.90;;;;;;2092432;28;20070;-71
2023/07/25 01:57:23;;;;;;;6.13;1.73;;;17.90;99.90;;;;;;2092165;28;20078;-71
2023/07/25 01:58:24;;;;;;;4.28;1.88;;;17.90;99.90;;;;;;2092812;28;20033;-71
2023/07/25 01:59:27;;;;;;;4.88;1.83;;;17.90;99.90;;;;;;2091621;28;20021;-71
2023/07/25 02:00:27;;;;;;;5.45;2.63;;;17.90;99.90;;;;;;2090983;28;20145;-71
2023/07/25 02:01:28;;;;;;;6.88;1.90;;;17.90;99.90;;;;;;2092968;28;20024;-71
2023/07/25 02:02:28;;;;;;;2.72;1.55;;;17.90;99.90;;;;;;2092118;28;20021;-71
2023/07/25 02:03:29;;;;;;;8.40;2.85;;;17.90;99.90;;;;;;2092265;28;20051;-71
2023/07/25 02:04:29;;;;;;;2.97;1.90;;;17.80;99.90;;;;;;2093343;28;20111;-71
2023/07/25 02:05:30;;;;;;;9.02;2.10;;;17.80;99.90;;;;;;2093626;28;20403;-71
2023/07/25 02:06:30;;;;;;;2.75;1.50;;;17.80;99.90;;;;;;2093438;28;20013;-71
2023/07/25 02:07:31;;;;;;;5.80;2.00;;;17.80;99.90;;;;;;2093753;28;20021;-71
2023/07/25 02:08:32;;;;;;;8.40;1.80;;;17.70;99.90;;;;;;2092044;28;20661;-71
2023/07/25 02:09:32;;;;;;;4.07;2.05;;;17.70;99.90;;;;;;2093378;28;20020;-71
2023/07/25 02:10:33;;;;;;;2.75;1.70;;;17.80;99.90;;;;;;2090864;28;20445;-71
2023/07/25 02:11:33;;;;;;;6.55;2.30;;;17.80;99.90;;;;;;2093010;28;20024;-71
2023/07/25 02:12:34;;;;;;;5.95;2.13;;;17.70;99.90;;;;;;2092112;28;20052;-71
2023/07/25 02:13:35;;;;;;;8.88;2.60;;;17.70;99.90;;;;;;2090636;28;20021;-71
2023/07/25 02:14:35;;;;;;;3.78;1.75;;;17.70;99.90;;;;;;2093128;28;20021;-71
2023/07/25 02:15:38;;;;;;;8.00;2.35;;;17.70;99.90;;;;;;2093117;28;20028;-71
2023/07/25 02:16:40;;;;;;;4.13;1.88;;;17.60;99.90;;;;;;2092494;28;20107;-71
2023/07/25 02:17:40;;;;;;;5.72;2.80;;;17.70;99.90;;;;;;2093077;28;20027;-71
2023/07/25 02:18:41;;;;;;;5.15;2.10;;;17.70;99.90;;;;;;2094456;28;20545;-71
2023/07/25 02:19:41;;;;;;;4.30;1.95;;;17.60;99.90;;;;;;2092840;28;20032;-71
2023/07/25 02:20:42;;;;;;;4.93;1.95;;;17.60;99.90;;;;;;2091226;28;20473;-71
2023/07/25 02:21:42;;;;;;;4.30;2.05;;;17.60;99.90;;;;;;2092971;28;20359;-71
2023/07/25 02:22:43;;;;;;;2.38;1.23;;;17.60;99.90;;;;;;2092361;28;20024;-71
2023/07/25 02:23:43;;;;;;;4.50;1.88;;;17.60;99.90;;;;;;2092904;28;20039;-70
2023/07/25 02:24:44;;;;;;;6.10;1.48;;;17.60;99.90;;;;;;2093599;28;20021;-70
2023/07/25 02:25:46;;;;;;;2.38;1.70;;;17.60;99.90;;;;;;2094143;28;20020;-70
2023/07/25 02:26:46;;;;;;;7.68;1.90;;;17.60;99.90;;;;;;2091866;28;20112;-70
2023/07/25 02:27:47;;;;;;;5.43;2.20;;;17.60;99.90;;;;;;2092636;28;20028;-70
2023/07/25 02:28:47;;;;;;;4.93;1.95;;;17.60;99.90;;;;;;2092044;28;20057;-70
2023/07/25 02:29:48;;;;;;;2.97;1.70;;;17.60;99.90;;;;;;2091248;28;20029;-70
2023/07/25 02:30:48;;;;;;;3.33;1.90;;;17.60;99.90;;;;;;2094195;28;20397;-70
2023/07/25 02:31:49;;;;;;;5.45;1.88;;;17.60;99.90;;;;;;2093269;28;20024;-70
2023/07/25 02:32:50;;;;;;;8.02;2.72;;;17.60;99.90;;;;;;2093073;28;20032;-70
2023/07/25 02:33:50;;;;;;;4.78;2.05;;;17.60;99.90;;;;;;2091951;28;20028;-70
2023/07/25 02:34:51;;;;;;;4.28;1.90;;;17.60;99.90;;;;;;2091967;28;20033;-70
2023/07/25 02:35:51;;;;;;;5.47;2.08;;;17.60;99.90;;;;;;2092372;28;20028;-70
2023/07/25 02:36:52;;;;;;;4.22;1.98;;;17.60;99.90;;;;;;2092322;28;20082;-70
2023/07/25 02:37:52;;;;;;;5.80;1.88;;;17.60;99.90;;;;;;2091068;28;20037;-70
2023/07/25 02:38:53;;;;;;;5.40;1.92;;;17.60;99.90;;;;;;2091113;28;20028;-70
2023/07/25 02:39:53;;;;;;;4.47;2.15;;;17.60;99.90;;;;;;2091641;28;20037;-70
2023/07/25 02:40:54;;;;;;;3.05;1.52;;;17.60;99.90;;;;;;2092982;28;20532;-70
2023/07/25 02:41:54;;;;;;;5.45;2.15;;;17.50;99.90;;;;;;2091157;28;20036;-70
2023/07/25 02:42:55;;;;;;;4.57;2.20;;;17.50;99.90;;;;;;2091487;28;20025;-70
2023/07/25 02:43:55;;;;;;;5.63;1.85;;;17.50;99.90;;;;;;2090907;28;20031;-70
2023/07/25 02:44:56;;;;;;;6.13;1.85;;;17.50;99.90;;;;;;2092233;28;20652;-70
2023/07/25 02:45:56;;;;;;;3.20;1.70;;;17.50;99.90;;;;;;2094181;28;20021;-70
2023/07/25 02:46:57;;;;;;;5.25;2.25;;;17.50;99.90;;;;;;2092352;28;20064;-70
2023/07/25 02:47:57;;;;;;;4.90;2.25;;;17.50;99.90;;;;;;2092467;28;20020;-70
2023/07/25 02:48:58;;;;;;;4.97;2.10;;;17.40;99.90;;;;;;2092909;28;20020;-70
2023/07/25 02:49:58;;;;;;;2.85;1.70;;;17.40;99.90;;;;;;2090666;28;20111;-70
2023/07/25 02:50:59;;;;;;;4.47;2.22;;;17.40;99.90;;;;;;2091289;28;20032;-70
2023/07/25 02:51:59;;;;;;;4.93;2.30;;;17.40;99.90;;;;;;2092310;28;20025;-70
2023/07/25 02:53:00;;;;;;;8.20;2.60;;;17.40;99.90;;;;;;2092501;28;20029;-70
2023/07/25 02:54:01;;;;;;;4.13;2.28;;;17.40;99.90;;;;;;2091279;28;20017;-70
2023/07/25 02:55:01;;;;;;;4.57;2.15;;;17.30;99.90;;;;;;2090339;28;20036;-70
2023/07/25 02:56:02;;;;;;;5.55;2.28;;;17.30;99.90;;;;;;2092491;28;20040;-70
2023/07/25 02:57:02;;;;;;;3.15;1.67;;;17.30;99.90;;;;;;2091557;28;20029;-70
2023/07/25 02:58:03;;;;;;;1.90;1.50;;;17.30;99.90;;;;;;2091210;28;20394;-70
2023/07/25 02:59:03;;;;;;;3.60;1.85;;;17.30;99.90;;;;;;2090665;28;20059;-70
2023/07/25 03:00:07;;;;;;;5.18;2.38;;;17.20;99.90;;;;;;2091437;28;20047;-70
2023/07/25 03:01:07;;;;;;;6.20;2.10;;;17.20;99.90;;;;;;2091940;28;20028;-70
2023/07/25 03:02:10;;;;;;;3.70;2.20;;;17.20;99.90;;;;;;2093006;28;20138;-70
2023/07/25 03:03:10;;;;;;;6.28;2.42;;;17.20;99.90;;;;;;2092031;28;20476;-70
2023/07/25 03:04:11;;;;;;;6.10;1.92;;;17.20;99.90;;;;;;2090474;28;20954;-70
2023/07/25 03:05:11;;;;;;;5.03;2.15;;;17.20;99.90;;;;;;2091871;28;20107;-70
2023/07/25 03:06:12;;;;;;;2.80;1.75;;;17.20;99.90;;;;;;2091298;28;20021;-70
2023/07/25 03:07:13;;;;;;;4.85;1.90;;;17.20;99.90;;;;;;2090887;28;20017;-70
2023/07/25 03:08:13;;;;;;;5.00;1.83;;;17.10;99.90;;;;;;2092170;28;20122;-70
2023/07/25 03:09:14;;;;;;;5.68;2.28;;;17.10;99.90;;;;;;2091658;28;20440;-70
2023/07/25 03:10:14;;;;;;;4.90;2.65;;;17.10;99.90;;;;;;2091498;28;20044;-70
2023/07/25 03:11:15;;;;;;;2.83;1.90;;;17.10;99.90;;;;;;2091043;28;20026;-70
2023/07/25 03:12:15;;;;;;;5.95;2.20;;;17.10;99.90;;;;;;2092520;28;20028;-70
2023/07/25 03:13:16;;;;;;;7.05;2.13;;;17.00;99.90;;;;;;2091500;28;20500;-70
2023/07/25 03:14:16;;;;;;;3.58;1.90;;;17.00;99.90;;;;;;2092771;28;20012;-70
2023/07/25 03:15:17;;;;;;;3.85;2.00;;;17.00;99.90;;;;;;2092684;28;20506;-70
2023/07/25 03:16:18;;;;;;;6.13;1.92;;;17.00;99.90;;;;;;2092548;28;20435;-70
2023/07/25 03:17:18;;;;;;;4.50;2.20;;;17.00;99.90;;;;;;2093227;28;20025;-70
2023/07/25 03:18:19;;;;;;;5.20;2.00;;;16.90;99.90;;;;;;2091187;28;20043;-70
2023/07/25 03:19:19;;;;;;;3.00;2.30;;;16.90;99.90;;;;;;2090527;28;20025;-70
2023/07/25 03:20:20;;;;;;;4.05;2.30;;;16.90;99.90;;;;;;2091451;28;20056;-70
2023/07/25 03:21:20;;;;;;;4.32;2.03;;;16.90;99.90;;;;;;2091976;28;20025;-70
2023/07/25 03:22:21;;;;;;;6.70;1.75;;;16.90;99.90;;;;;;2091091;28;20029;-70
2023/07/25 03:23:21;;;;;;;3.80;2.20;;;16.80;99.90;;;;;;2088700;28;20028;-70
2023/07/25 03:24:22;;;;;;;4.28;2.10;;;16.80;99.90;;;;;;2090413;28;20040;-70
2023/07/25 03:25:22;;;;;;;2.67;2.00;;;16.80;99.90;;;;;;2090667;28;20025;-70
2023/07/25 03:26:23;;;;;;;4.53;1.90;;;16.80;99.90;;;;;;2092471;28;20832;-70
2023/07/25 03:27:24;;;;;;;6.28;2.13;;;16.80;99.90;;;;;;2092065;28;20028;-70
2023/07/25 03:28:25;;;;;;;3.03;2.20;;;16.70;99.90;;;;;;2091780;28;20032;-70
2023/07/25 03:29:25;;;;;;;6.70;2.10;;;16.70;99.90;;;;;;2091215;28;20063;-70
2023/07/25 03:30:26;;;;;;;3.90;2.05;;;16.70;99.90;;;;;;2091526;28;20031;-70
2023/07/25 03:31:26;;;;;;;5.63;2.10;;;16.70;99.90;;;;;;2093772;28;20495;-70
2023/07/25 03:32:27;;;;;;;3.42;2.08;;;16.70;99.90;;;;;;2091908;28;20031;-70
2023/07/25 03:33:27;;;;;;;4.60;2.28;;;16.70;99.90;;;;;;2090906;28;20032;-70
2023/07/25 03:34:28;;;;;;;4.40;2.10;;;16.60;99.90;;;;;;2092288;28;20029;-70
2023/07/25 03:35:29;;;;;;;3.60;2.60;;;16.60;99.90;;;;;;2092037;28;20029;-70
2023/07/25 03:36:29;;;;;;;4.20;2.25;;;16.60;99.90;;;;;;2091083;28;20583;-70
2023/07/25 03:37:30;;;;;;;6.15;2.13;;;16.60;99.90;;;;;;2092586;28;20021;-70
2023/07/25 03:38:30;;;;;;;5.05;2.17;;;16.60;99.90;;;;;;2091766;28;20025;-70
2023/07/25 03:39:31;;;;;;;4.22;1.83;;;16.60;99.90;;;;;;2089972;28;20094;-70
2023/07/25 03:40:31;;;;;;;5.93;2.13;;;16.60;99.90;;;;;;2091261;28;20035;-70
2023/07/25 03:41:32;;;;;;;4.18;2.17;;;16.50;99.90;;;;;;2091472;28;20024;-70
2023/07/25 03:42:32;;;;;;;3.75;2.40;;;16.50;99.90;;;;;;2090008;28;20027;-70
2023/07/25 03:43:33;;;;;;;3.35;2.05;;;16.50;99.90;;;;;;2091032;28;20024;-70
2023/07/25 03:44:33;;;;;;;7.25;2.30;;;16.50;99.90;;;;;;2090116;28;20636;-70
2023/07/25 03:45:34;;;;;;;5.05;2.22;;;16.50;99.90;;;;;;2089070;28;20589;-70
2023/07/25 03:46:34;;;;;;;4.65;2.20;;;16.50;99.90;;;;;;2091741;28;20100;-70
2023/07/25 03:47:35;;;;;;;3.17;2.00;;;16.40;99.90;;;;;;2090345;28;20024;-70
2023/07/25 03:48:36;;;;;;;3.67;2.17;;;16.40;99.90;;;;;;2092391;28;20052;-70
2023/07/25 03:49:36;;;;;;;8.57;3.55;;;16.40;99.90;;;;;;2091836;28;20113;-70
2023/07/25 03:50:37;;;;;;;5.82;2.38;;;16.40;99.90;;;;;;2093279;28;20027;-70
2023/07/25 03:51:37;;;;;;;3.78;1.90;;;16.40;99.90;;;;;;2089802;28;20067;-70
2023/07/25 03:52:38;;;;;;;4.05;2.20;;;16.40;99.90;;;;;;2093095;28;20020;-70
2023/07/25 03:53:38;;;;;;;5.68;1.98;;;16.40;99.90;;;;;;2091046;28;20132;-70
2023/07/25 03:54:39;;;;;;;6.05;2.22;;;16.40;99.90;;;;;;2092276;28;20236;-70
2023/07/25 03:55:39;;;;;;;2.40;1.83;;;16.30;99.90;;;;;;2091578;28;20021;-70
2023/07/25 03:56:40;;;;;;;7.72;2.28;;;16.30;99.90;;;;;;2091527;28;20019;-70
2023/07/25 03:57:40;;;;;;;3.30;1.88;;;16.30;99.90;;;;;;2091721;28;20028;-71
2023/07/25 03:58:41;;;;;;;4.38;2.30;;;16.30;99.90;;;;;;2091465;28;20021;-71
2023/07/25 03:59:41;;;;;;;4.32;2.00;;;16.30;99.90;;;;;;2091416;28;20047;-71
2023/07/25 04:00:42;;;;;;;3.97;2.10;;;16.30;99.90;;;;;;2090707;28;20441;-71
2023/07/25 04:01:42;;;;;;;5.30;1.73;;;16.30;99.90;;;;;;2091472;28;20024;-70
2023/07/25 04:02:43;;;;;;;3.88;1.85;;;16.30;99.90;;;;;;2091536;28;20093;-70
2023/07/25 04:03:44;;;;;;;6.13;2.45;;;16.20;99.90;;;;;;2090171;28;20472;-70
2023/07/25 04:04:44;;;;;;;5.40;2.45;;;16.20;99.90;;;;;;2090670;28;20074;-70
2023/07/25 04:05:45;;;;;;;4.35;1.90;;;16.20;99.90;;;;;;2091642;28;20025;-70
2023/07/25 04:06:45;;;;;;;3.97;2.38;;;16.20;99.90;;;;;;2091203;28;20031;-70
2023/07/25 04:07:46;;;;;;;7.45;2.10;;;16.20;99.90;;;;;;2090621;28;20062;-70
2023/07/25 04:08:46;;;;;;;3.17;2.08;;;16.20;99.90;;;;;;2091149;28;20501;-70
2023/07/25 04:09:47;;;;;;;5.80;2.13;;;16.20;99.90;;;;;;2091870;28;20400;-70
2023/07/25 04:10:47;;;;;;;3.35;2.10;;;16.20;99.90;;;;;;2091947;28;20047;-70
2023/07/25 04:11:48;;;;;;;4.50;2.03;;;16.20;99.90;;;;;;2091496;28;20047;-70
2023/07/25 04:12:48;;;;;;;3.47;2.45;;;16.20;99.90;;;;;;2091967;28;20020;-71
2023/07/25 04:13:49;;;;;;;3.03;1.83;;;16.20;99.90;;;;;;2092191;28;20055;-70
2023/07/25 04:14:50;;;;;;;3.47;2.15;;;16.20;99.90;;;;;;2092236;28;20024;-70
2023/07/25 04:15:50;;;;;;;3.65;1.80;;;16.20;99.90;;;;;;2091056;28;20025;-72
2023/07/25 04:16:51;;;;;;;5.45;2.80;;;16.20;99.90;;;;;;2091246;28;20093;-71
2023/07/25 04:17:54;;;;;;;5.53;2.35;;;16.20;99.90;;;;;;2091279;28;20074;-71
2023/07/25 04:18:55;;;;;;;5.18;2.65;;;16.20;99.90;;;;;;2090747;28;20029;-71
2023/07/25 04:19:55;;;;;;;3.78;1.83;;;16.20;99.90;;;;;;2089808;28;20096;-71
2023/07/25 04:20:56;;;;;;;3.40;1.90;;;16.20;99.90;;;;;;2090842;28;20450;-71
2023/07/25 04:21:56;;;;;;;5.13;2.40;;;16.20;99.90;;;;;;2046714;28;1291739;-71
2023/07/25 04:22:57;;;;;;;4.95;2.00;;;16.20;99.90;;;;;;2092005;28;20515;-71
2023/07/25 04:23:57;;;;;;;4.38;2.30;;;16.20;99.90;;;;;;2091508;28;20040;-71
2023/07/25 04:24:58;;;;;;;8.93;2.22;;;16.20;99.90;;;;;;2091745;28;20068;-70
2023/07/25 04:25:58;;;;;;;6.78;2.38;;;16.20;99.90;;;;;;2089539;28;20048;-70
2023/07/25 04:26:59;;;;;;;2.40;2.00;;;16.20;99.90;;;;;;2091003;28;20029;-70
2023/07/25 04:27:59;;;;;;;4.45;1.92;;;16.20;99.90;;;;;;2091996;28;20036;-70
2023/07/25 04:29:00;;;;;;;6.07;2.83;;;16.20;99.90;;;;;;2091336;28;20420;-70
2023/07/25 04:30:00;;;;;;;4.78;2.58;;;16.20;99.90;;;;;;2089536;28;20108;-70
2023/07/25 04:31:01;;;;;;;4.90;2.00;;;16.20;99.90;;;;;;2090510;28;20361;-70
2023/07/25 04:32:02;;;;;;;2.60;1.80;;;16.20;99.90;;;;;;2092218;28;20029;-70
2023/07/25 04:33:02;;;;;;;7.97;2.13;;;16.20;99.90;;;;;;2090742;28;20028;-70
2023/07/25 04:34:03;;;;;;;5.30;2.22;;;16.20;99.90;;;;;;2092384;28;20040;-70
2023/07/25 04:35:03;;;;;;;4.40;2.38;;;16.20;99.90;;;;;;2090380;28;20035;-70
2023/07/25 04:36:05;;;;;;;3.65;2.22;;;16.20;99.90;;;;;;2091173;28;20028;-70
2023/07/25 04:37:05;;;;;;;5.93;2.58;;;16.20;99.90;;;;;;2090037;28;20496;-70
2023/07/25 04:38:06;;;;;;;2.35;2.15;;;16.20;99.90;;;;;;2092128;28;20396;-70
2023/07/25 04:39:07;;;;;;;3.35;2.17;;;16.20;99.90;;;;;;2092303;28;20028;-70
2023/07/25 04:40:08;;;;;;;8.60;2.67;;;16.30;99.90;;;;;;2090540;28;20028;-70
2023/07/25 04:41:08;;;;;;;4.40;2.70;;;16.30;99.90;;;;;;2091184;28;20480;-70
2023/07/25 04:42:09;;;;;;;5.35;2.60;;;16.30;99.90;;;;;;2089888;28;20033;-70
2023/07/25 04:43:10;;;;;;;4.45;2.70;;;16.30;99.90;;;;;;2091774;28;20033;-70
2023/07/25 04:44:11;;;;;;;6.93;2.90;;;16.30;99.90;;;;;;2091163;28;20111;-70
2023/07/25 04:45:11;;;;;;;3.80;2.40;;;16.30;99.90;;;;;;2092407;28;20013;-70
2023/07/25 04:46:12;;;;;;;2.90;1.95;;;16.30;99.90;;;;;;2092052;28;20074;-70
2023/07/25 04:47:12;;;;;;;2.55;2.08;;;16.30;99.90;;;;;;2091876;28;20461;-70
2023/07/25 04:48:13;;;;;;;2.90;2.17;;;16.30;99.90;;;;;;2091881;28;20070;-70
2023/07/25 04:49:13;;;;;;;3.88;2.45;;;16.30;99.90;;;;;;2093859;28;20024;-70
2023/07/25 04:50:14;;;;;;;7.57;2.80;;;16.40;99.90;;;;;;2091491;28;20029;-70
2023/07/25 04:51:14;;;;;;;4.15;2.95;;;16.30;99.90;;;;;;2095307;28;20033;-70
2023/07/25 04:52:15;;;;;;;2.78;2.58;;;16.40;99.90;;;;;;2094759;28;20437;-70
2023/07/25 04:53:15;;;;;;;3.85;2.65;;;16.30;99.90;;;;;;2092139;28;20057;-70
2023/07/25 04:54:16;;;;;;;4.75;2.80;;;16.40;99.90;;;;;;2092183;28;20035;-70
2023/07/25 04:55:17;;;;;;;3.97;2.60;;;16.40;99.90;;;;;;2090869;28;20047;-70
2023/07/25 04:56:17;;;;;;;9.07;2.78;;;16.40;99.90;;;;;;2091767;28;20085;-70
2023/07/25 04:57:18;;;;;;;7.03;2.65;;;16.40;99.90;;;;;;2092057;28;20119;-70
2023/07/25 04:58:18;;;;;;;5.88;2.53;;;16.40;99.90;;;;;;2091980;28;20028;-70
2023/07/25 04:59:19;;;;;;;3.85;2.38;;;16.40;99.90;;;;;;2090778;28;20033;-70
2023/07/25 05:00:19;;;;;;;5.03;2.42;;;16.40;99.90;;;;;;2091442;28;20056;-70
2023/07/25 05:01:20;;;;;;;6.70;2.95;;;16.40;99.90;;;;;;2090729;28;20020;-70
2023/07/25 05:02:21;;;;;;;4.80;2.38;;;16.50;99.90;;;;;;2091777;28;20040;-70
2023/07/25 05:03:22;;;;;;;4.85;2.65;;;16.50;99.90;;;;;;2091009;28;20111;-70
2023/07/25 05:04:22;;;;;;;3.95;2.25;;;16.50;99.90;;;;;;2090482;28;20036;-70
2023/07/25 05:05:23;;;;;;;5.43;2.90;;;16.60;99.90;;;;;;2091474;28;20031;-70
2023/07/25 05:06:24;;;;;;;3.85;2.35;;;16.60;99.90;;;;;;2091967;28;20464;-70
2023/07/25 05:07:24;;;;;;;7.13;2.28;;;16.60;99.90;;;;;;2091500;28;20066;-70
2023/07/25 05:08:25;;;;;;;3.95;2.50;;;16.60;99.90;;;;;;2090430;28;20100;-70
2023/07/25 05:09:26;;;;;;;5.13;2.60;;;16.60;99.90;;;;;;2091090;28;20042;-70
2023/07/25 05:10:26;;;;;;;14.65;2.75;;;16.70;99.90;;;;;;2091025;28;20021;-70
2023/07/25 05:11:27;;;;;;;5.70;2.60;;;16.70;99.90;;;;;;2093184;28;20036;-70
2023/07/25 05:12:27;;;;;;;3.95;2.40;;;16.70;99.90;;;;;;2091883;28;20089;-70
2023/07/25 05:13:28;;;;;;;7.55;2.97;;;16.70;99.90;;;;;;2091863;28;20028;-70
2023/07/25 05:14:28;;;;;;;5.30;3.10;;;16.80;99.90;;;;;;2090233;28;20032;-70
2023/07/25 05:15:29;;;;;;;7.90;2.90;;;16.80;99.90;;;;;;2094181;28;20033;-70